createdAt,value
2022-10-18T00:04:01.987Z,14.4
2022-10-18T00:09:02.588Z,14.4
2022-10-18T00:14:01.998Z,14.4
2022-10-18T00:19:02.459Z,14.4
2022-10-18T00:24:02.823Z,14.4
2022-10-18T00:29:02.352Z,14.4
2022-10-18T00:34:01.895Z,14.4
2022-10-18T00:39:02.160Z,14.4
2022-10-18T00:44:02.857Z,14.4
2022-10-18T00:49:02.503Z,14.4
2022-10-18T00:54:02.034Z,14.4
2022-10-18T00:59:02.704Z,14.4
2022-10-18T01:04:02.403Z,14.4
2022-10-18T01:09:02.442Z,14.4
2022-10-18T01:14:02.139Z,14.3
2022-10-18T01:19:02.851Z,14.3
2022-10-18T01:24:02.189Z,14.3
2022-10-18T01:29:02.570Z,14.3
2022-10-18T01:39:02.389Z,14.3
2022-10-18T01:44:02.692Z,14.2
2022-10-18T01:49:02.523Z,14.2
2022-10-18T01:54:02.260Z,14.2
2022-10-18T01:59:02.108Z,14.2
2022-10-18T02:04:02.183Z,14.1
2022-10-18T02:09:02.731Z,14.1
2022-10-18T02:14:02.551Z,14
2022-10-18T02:19:02.028Z,14
2022-10-18T02:24:02.589Z,13.9
2022-10-18T02:29:03.119Z,13.9
2022-10-18T02:34:02.478Z,13.8
2022-10-18T02:39:02.782Z,13.8
2022-10-18T02:44:02.222Z,13.8
2022-10-18T02:49:01.956Z,13.8
2022-10-18T02:54:02.448Z,13.7
2022-10-18T02:59:02.075Z,13.7
2022-10-18T03:04:02.327Z,13.7
2022-10-18T03:09:02.305Z,13.7
2022-10-18T03:14:02.956Z,13.6
2022-10-18T03:19:02.292Z,13.6
2022-10-18T03:24:02.788Z,13.4
2022-10-18T03:29:02.116Z,13.4
2022-10-18T03:34:02.578Z,13.3
2022-10-18T03:39:02.543Z,13.3
2022-10-18T03:44:02.717Z,13.1
2022-10-18T03:49:02.431Z,13.1
2022-10-18T03:54:02.451Z,12.9
2022-10-18T03:59:02.119Z,12.9
2022-10-18T04:04:02.332Z,12.7
2022-10-18T04:09:05.295Z,12.7
2022-10-18T04:14:02.848Z,12.6
2022-10-18T04:19:02.477Z,12.6
2022-10-18T04:24:02.796Z,12.4
2022-10-18T04:29:02.276Z,12.4
2022-10-18T04:34:02.955Z,12.3
2022-10-18T04:39:02.501Z,12.3
2022-10-18T04:44:02.959Z,12.2
2022-10-18T04:49:02.580Z,12.2
2022-10-18T04:54:02.826Z,12.2
2022-10-18T04:59:02.096Z,12.2
2022-10-18T05:04:02.548Z,12.1
2022-10-18T05:09:02.154Z,12.1
2022-10-18T05:14:03.014Z,12.1
2022-10-18T05:19:02.402Z,12.1
2022-10-18T05:24:02.145Z,11.9
2022-10-18T05:29:02.752Z,11.9
2022-10-18T05:34:02.332Z,11.9
2022-10-18T05:39:04.920Z,11.9
2022-10-18T05:44:02.820Z,11.8
2022-10-18T05:49:02.047Z,11.8
2022-10-18T05:54:02.362Z,11.7
2022-10-18T05:59:02.644Z,11.7
2022-10-18T06:04:02.946Z,11.7
2022-10-18T06:09:02.201Z,11.7
2022-10-18T06:14:02.468Z,11.7
2022-10-18T06:19:03.102Z,11.7
2022-10-18T06:24:02.518Z,11.8
2022-10-18T06:29:02.581Z,11.8
2022-10-18T06:34:02.143Z,12.3
2022-10-18T06:39:02.327Z,12.3
2022-10-18T06:44:03.016Z,12.6
2022-10-18T06:49:02.378Z,12.6
2022-10-18T06:54:17.341Z,12.8
2022-10-18T06:59:02.568Z,12.8
2022-10-18T07:04:02.257Z,13
2022-10-18T07:09:03.106Z,13
2022-10-18T07:14:02.617Z,13.1
2022-10-18T07:19:03.084Z,13.1
2022-10-18T07:24:02.774Z,13.1
2022-10-18T07:29:03.107Z,13.1
2022-10-18T07:34:02.623Z,13.2
2022-10-18T07:39:02.521Z,13.2
2022-10-18T07:44:02.929Z,13.2
2022-10-18T07:49:02.528Z,13.2
2022-10-18T07:54:02.764Z,13.2
2022-10-18T07:59:03.096Z,13.2
2022-10-18T08:04:07.176Z,13.2
2022-10-18T08:09:03.061Z,13.2
2022-10-18T08:14:02.533Z,13.2
2022-10-18T08:19:02.996Z,13.2
2022-10-18T08:24:02.318Z,13.2
2022-10-18T08:29:21.219Z,13.2
2022-10-18T08:34:02.176Z,13.2
2022-10-18T08:39:02.447Z,13.2
2022-10-18T08:44:04.780Z,13.3
2022-10-18T08:49:02.818Z,13.3
2022-10-18T08:54:02.153Z,13.3
2022-10-18T08:59:02.287Z,13.3
2022-10-18T09:04:02.638Z,13.4
2022-10-18T09:09:02.841Z,13.4
2022-10-18T09:14:02.497Z,13.4
2022-10-18T09:19:02.816Z,13.4
2022-10-18T09:24:02.674Z,13.5
2022-10-18T09:29:02.390Z,13.5
2022-10-18T09:34:03.227Z,13.5
2022-10-18T09:39:03.164Z,13.5
2022-10-18T09:44:02.802Z,13.5
2022-10-18T09:49:02.477Z,13.5
2022-10-18T09:54:02.460Z,13.7
2022-10-18T09:59:02.509Z,13.7
2022-10-18T10:04:03.188Z,14.2
2022-10-18T10:09:02.792Z,14.2
2022-10-18T10:14:02.771Z,14.8
2022-10-18T10:19:02.632Z,14.8
2022-10-18T10:24:03.086Z,15.2
2022-10-18T10:29:02.490Z,15.2
2022-10-18T10:34:02.834Z,15.9
2022-10-18T10:39:02.398Z,15.9
2022-10-18T10:44:02.810Z,15.8
2022-10-18T10:49:21.757Z,15.8
2022-10-18T10:54:02.963Z,16.1
2022-10-18T10:59:02.539Z,16.1
2022-10-18T11:04:02.639Z,16.6
2022-10-18T11:09:02.380Z,16.6
2022-10-18T11:14:21.094Z,16.7
2022-10-18T11:19:02.682Z,16.7
2022-10-18T11:24:03.270Z,16.7
2022-10-18T11:29:03.070Z,16.7
2022-10-18T11:34:09.554Z,17.1
2022-10-18T11:39:03.271Z,17.1
2022-10-18T11:44:03.526Z,17
2022-10-18T11:49:02.777Z,17
2022-10-18T11:54:03.241Z,16.9
2022-10-18T11:59:02.722Z,16.9
2022-10-18T12:04:03.349Z,16.7
2022-10-18T12:09:03.298Z,16.7
2022-10-18T12:14:02.598Z,16.8
2022-10-18T12:19:03.107Z,16.8
2022-10-18T12:24:02.281Z,16.6
2022-10-18T12:29:02.496Z,16.6
2022-10-18T12:34:02.930Z,16.2
2022-10-18T12:39:03.186Z,16.2
2022-10-18T12:44:02.776Z,15.8
2022-10-18T12:49:03.432Z,15.8
2022-10-18T12:54:02.870Z,15.7
2022-10-18T12:59:03.224Z,15.7
2022-10-18T13:04:02.541Z,15.8
2022-10-18T13:09:03.380Z,15.8
2022-10-18T13:14:02.616Z,16.1
2022-10-18T13:19:03.180Z,16.1
2022-10-18T13:24:02.787Z,16.2
2022-10-18T13:29:03.244Z,16.2
2022-10-18T13:34:02.590Z,16.1
2022-10-18T13:39:02.669Z,16.1
2022-10-18T13:44:02.809Z,16.3
2022-10-18T13:49:03.207Z,16.3
2022-10-18T13:54:02.562Z,16.4
2022-10-18T13:59:14.047Z,16.4
2022-10-18T14:04:02.861Z,16.6
2022-10-18T14:09:09.558Z,16.6
2022-10-18T14:14:02.359Z,16.6
2022-10-18T14:19:02.751Z,16.6
2022-10-18T14:24:03.226Z,16.6
2022-10-18T14:29:02.634Z,16.6
2022-10-18T14:34:03.307Z,16.6
2022-10-18T14:39:02.756Z,16.6
2022-10-18T14:44:03.180Z,16.4
2022-10-18T14:49:03.116Z,16.4
2022-10-18T14:54:02.831Z,16.1
2022-10-18T14:59:03.011Z,16.1
2022-10-18T15:04:03.234Z,15.8
2022-10-18T15:09:03.326Z,15.8
2022-10-18T15:14:02.584Z,15.6
2022-10-18T15:19:02.549Z,15.6
2022-10-18T15:24:03.499Z,15.3
2022-10-18T15:29:06.046Z,15.3
2022-10-18T15:34:02.524Z,15.1
2022-10-18T15:39:02.975Z,15.1
2022-10-18T15:44:02.944Z,14.9
2022-10-18T15:49:02.428Z,14.9
2022-10-18T15:54:02.788Z,14.7
2022-10-18T15:59:03.091Z,14.7
2022-10-18T16:04:02.641Z,14.4
2022-10-18T16:09:03.173Z,14.4
2022-10-18T16:14:02.611Z,14.3
2022-10-18T16:19:02.540Z,14.3
2022-10-18T16:24:03.005Z,14
2022-10-18T16:29:03.486Z,14
2022-10-18T16:34:02.991Z,13.8
2022-10-18T16:39:02.601Z,13.8
2022-10-18T16:44:03.012Z,13.7
2022-10-18T16:49:03.448Z,13.7
2022-10-18T16:54:02.661Z,13.5
2022-10-18T16:59:03.282Z,13.5
2022-10-18T17:04:02.715Z,13.3
2022-10-18T17:09:03.648Z,13.3
2022-10-18T17:14:03.099Z,13.3
2022-10-18T17:19:03.209Z,13.3
2022-10-18T17:24:02.785Z,13.3
2022-10-18T17:29:03.236Z,13.3
2022-10-18T17:34:02.538Z,13.3
2022-10-18T17:39:03.120Z,13.3
2022-10-18T17:44:03.429Z,13.3
2022-10-18T17:49:02.603Z,13.3
2022-10-18T17:54:04.214Z,13.3
2022-10-18T17:59:02.687Z,13.3
2022-10-18T18:04:02.889Z,13.3
2022-10-18T18:09:03.199Z,13.3
2022-10-18T18:14:03.390Z,13.3
2022-10-18T18:19:04.131Z,13.3
2022-10-18T18:24:02.827Z,13.3
2022-10-18T18:34:03.393Z,13.3
2022-10-18T18:39:03.552Z,13.3
2022-10-18T18:44:03.055Z,13.3
2022-10-18T18:49:02.751Z,13.3
2022-10-18T18:54:03.103Z,13.3
2022-10-18T18:59:03.419Z,13.3
2022-10-18T19:04:02.586Z,13.2
2022-10-18T19:09:02.968Z,13.2
2022-10-18T19:14:02.761Z,13.2
2022-10-18T19:19:03.134Z,13.2
2022-10-18T19:24:03.566Z,13.2
2022-10-18T19:29:03.187Z,13.2
2022-10-18T19:34:02.848Z,13.1
2022-10-18T19:39:03.701Z,13.1
2022-10-18T19:44:03.297Z,13.1
2022-10-18T19:49:03.036Z,13.1
2022-10-18T19:54:03.449Z,13.1
2022-10-18T19:59:02.945Z,13.1
2022-10-18T20:04:03.377Z,13.1
2022-10-18T20:09:02.754Z,13.1
2022-10-18T20:14:03.564Z,13.1
2022-10-18T20:19:03.061Z,13.1
2022-10-18T20:24:03.284Z,12.9
2022-10-18T20:29:03.587Z,12.9
2022-10-18T20:34:03.231Z,12.9
2022-10-18T20:39:03.585Z,12.9
2022-10-18T20:44:02.866Z,12.8
2022-10-18T20:49:03.022Z,12.8
2022-10-18T20:59:02.788Z,12.7
2022-10-18T21:04:02.671Z,12.5
2022-10-18T21:09:03.537Z,12.5
2022-10-18T21:14:03.541Z,12.3
2022-10-18T21:19:02.891Z,12.3
2022-10-18T21:24:06.913Z,12.2
2022-10-18T21:29:03.626Z,12.2
2022-10-18T21:34:03.420Z,11.9
2022-10-18T21:39:02.968Z,11.9
2022-10-18T21:44:05.607Z,11.7
2022-10-18T21:49:03.457Z,11.7
2022-10-18T21:54:02.748Z,11.6
2022-10-18T21:59:03.085Z,11.6
2022-10-18T22:04:03.587Z,11.4
2022-10-18T22:09:02.881Z,11.4
2022-10-18T22:14:04.838Z,11.3
2022-10-18T22:19:03.604Z,11.3
2022-10-18T22:24:03.011Z,11.3
2022-10-18T22:29:03.360Z,11.3
2022-10-18T22:34:02.767Z,11.3
2022-10-18T22:39:02.897Z,11.3
2022-10-18T22:44:03.783Z,11.3
2022-10-18T22:49:03.372Z,11.3
2022-10-18T22:54:03.679Z,11.3
2022-10-18T22:59:02.977Z,11.3
2022-10-18T23:04:03.182Z,11.3
2022-10-18T23:09:02.753Z,11.3
2022-10-18T23:14:03.389Z,11.2
2022-10-18T23:19:02.712Z,11.2
2022-10-18T23:24:03.219Z,11.2
2022-10-18T23:29:03.562Z,11.2
2022-10-18T23:34:03.416Z,11.1
2022-10-18T23:39:02.933Z,11.1
2022-10-18T23:44:03.640Z,10.9
2022-10-18T23:49:03.044Z,10.9
2022-10-18T23:54:03.408Z,10.8
2022-10-18T23:59:03.706Z,10.8
